sensor_id;sensor_type;location;lat;lon;timestamp;P1;durP1;ratioP1;P2;durP2;ratioP2
4049;SDS011;2039;50.894;6.888;2023-04-25T00:02:23;78.87;;;9.10;;
4049;SDS011;2039;50.894;6.888;2023-04-25T00:04:49;76.47;;;9.07;;
4049;SDS011;2039;50.894;6.888;2023-04-25T00:07:15;76.47;;;9.20;;
4049;SDS011;2039;50.894;6.888;2023-04-25T00:09:41;77.07;;;10.23;;
4049;SDS011;2039;50.894;6.888;2023-04-25T00:12:07;75.90;;;9.80;;
4049;SDS011;2039;50.894;6.888;2023-04-25T00:14:33;67.90;;;7.80;;
4049;SDS011;2039;50.894;6.888;2023-04-25T00:17:00;73.70;;;9.75;;
4049;SDS011;2039;50.894;6.888;2023-04-25T00:19:27;79.20;;;9.30;;
4049;SDS011;2039;50.894;6.888;2023-04-25T00:21:56;78.23;;;11.57;;
4049;SDS011;2039;50.894;6.888;2023-04-25T00:24:22;73.28;;;10.80;;
4049;SDS011;2039;50.894;6.888;2023-04-25T00:26:48;74.05;;;11.63;;
4049;SDS011;2039;50.894;6.888;2023-04-25T00:29:14;73.30;;;14.20;;
4049;SDS011;2039;50.894;6.888;2023-04-25T00:31:40;82.80;;;12.73;;
4049;SDS011;2039;50.894;6.888;2023-04-25T00:34:06;75.37;;;9.90;;
4049;SDS011;2039;50.894;6.888;2023-04-25T00:36:33;75.38;;;9.07;;
4049;SDS011;2039;50.894;6.888;2023-04-25T00:38:59;70.80;;;10.33;;
4049;SDS011;2039;50.894;6.888;2023-04-25T00:41:25;75.03;;;9.77;;
4049;SDS011;2039;50.894;6.888;2023-04-25T00:43:51;67.85;;;8.57;;
4049;SDS011;2039;50.894;6.888;2023-04-25T00:46:18;72.72;;;8.80;;
4049;SDS011;2039;50.894;6.888;2023-04-25T00:48:44;73.87;;;9.27;;
4049;SDS011;2039;50.894;6.888;2023-04-25T00:51:12;75.47;;;9.05;;
4049;SDS011;2039;50.894;6.888;2023-04-25T00:53:41;67.95;;;8.13;;
4049;SDS011;2039;50.894;6.888;2023-04-25T00:56:07;71.60;;;9.20;;
4049;SDS011;2039;50.894;6.888;2023-04-25T00:58:33;72.30;;;9.50;;
4049;SDS011;2039;50.894;6.888;2023-04-25T01:00:59;73.07;;;8.82;;
4049;SDS011;2039;50.894;6.888;2023-04-25T01:03:26;70.80;;;10.38;;
4049;SDS011;2039;50.894;6.888;2023-04-25T01:05:53;70.85;;;9.80;;
4049;SDS011;2039;50.894;6.888;2023-04-25T01:08:19;80.40;;;10.67;;
4049;SDS011;2039;50.894;6.888;2023-04-25T01:10:48;74.07;;;9.68;;
4049;SDS011;2039;50.894;6.888;2023-04-25T01:13:14;77.03;;;9.70;;
4049;SDS011;2039;50.894;6.888;2023-04-25T01:15:40;72.60;;;11.47;;
4049;SDS011;2039;50.894;6.888;2023-04-25T01:18:06;74.20;;;11.80;;
4049;SDS011;2039;50.894;6.888;2023-04-25T01:20:32;77.27;;;10.70;;
4049;SDS011;2039;50.894;6.888;2023-04-25T01:22:58;73.72;;;10.65;;
4049;SDS011;2039;50.894;6.888;2023-04-25T01:25:24;72.32;;;10.77;;
4049;SDS011;2039;50.894;6.888;2023-04-25T01:27:50;76.45;;;11.40;;
4049;SDS011;2039;50.894;6.888;2023-04-25T01:30:17;76.15;;;11.98;;
4049;SDS011;2039;50.894;6.888;2023-04-25T01:32:42;76.60;;;11.67;;
4049;SDS011;2039;50.894;6.888;2023-04-25T01:35:10;78.30;;;12.80;;
4049;SDS011;2039;50.894;6.888;2023-04-25T01:37:37;83.00;;;12.38;;
4049;SDS011;2039;50.894;6.888;2023-04-25T01:40:10;75.22;;;13.18;;
4049;SDS011;2039;50.894;6.888;2023-04-25T01:42:38;76.18;;;13.90;;
4049;SDS011;2039;50.894;6.888;2023-04-25T01:45:07;77.90;;;13.38;;
4049;SDS011;2039;50.894;6.888;2023-04-25T01:47:33;76.97;;;14.68;;
4049;SDS011;2039;50.894;6.888;2023-04-25T01:50:02;78.53;;;15.27;;
4049;SDS011;2039;50.894;6.888;2023-04-25T01:52:29;74.15;;;13.63;;
4049;SDS011;2039;50.894;6.888;2023-04-25T01:54:55;85.50;;;15.13;;
4049;SDS011;2039;50.894;6.888;2023-04-25T01:57:22;75.15;;;12.88;;
4049;SDS011;2039;50.894;6.888;2023-04-25T01:59:48;84.10;;;14.63;;
4049;SDS011;2039;50.894;6.888;2023-04-25T02:02:14;76.32;;;12.20;;
4049;SDS011;2039;50.894;6.888;2023-04-25T02:04:40;76.87;;;14.40;;
4049;SDS011;2039;50.894;6.888;2023-04-25T02:07:06;77.70;;;15.93;;
4049;SDS011;2039;50.894;6.888;2023-04-25T02:09:32;74.63;;;15.73;;
4049;SDS011;2039;50.894;6.888;2023-04-25T02:11:58;72.27;;;14.90;;
4049;SDS011;2039;50.894;6.888;2023-04-25T02:14:23;75.20;;;17.45;;
4049;SDS011;2039;50.894;6.888;2023-04-25T02:16:49;84.20;;;15.47;;
4049;SDS011;2039;50.894;6.888;2023-04-25T02:19:16;80.30;;;19.70;;
4049;SDS011;2039;50.894;6.888;2023-04-25T02:21:42;76.20;;;15.90;;
4049;SDS011;2039;50.894;6.888;2023-04-25T02:24:07;73.90;;;16.13;;
4049;SDS011;2039;50.894;6.888;2023-04-25T02:26:33;79.07;;;18.63;;
4049;SDS011;2039;50.894;6.888;2023-04-25T02:28:59;88.90;;;17.17;;
4049;SDS011;2039;50.894;6.888;2023-04-25T02:31:26;76.25;;;13.95;;
4049;SDS011;2039;50.894;6.888;2023-04-25T02:33:51;80.67;;;12.00;;
4049;SDS011;2039;50.894;6.888;2023-04-25T02:36:17;81.10;;;14.30;;
4049;SDS011;2039;50.894;6.888;2023-04-25T02:38:43;74.77;;;14.57;;
4049;SDS011;2039;50.894;6.888;2023-04-25T02:41:08;75.37;;;13.47;;
4049;SDS011;2039;50.894;6.888;2023-04-25T02:43:34;72.83;;;11.50;;
4049;SDS011;2039;50.894;6.888;2023-04-25T02:46:00;74.20;;;11.23;;
4049;SDS011;2039;50.894;6.888;2023-04-25T02:48:25;77.67;;;14.10;;
4049;SDS011;2039;50.894;6.888;2023-04-25T02:50:51;72.47;;;10.90;;
4049;SDS011;2039;50.894;6.888;2023-04-25T02:53:17;70.53;;;12.43;;
4049;SDS011;2039;50.894;6.888;2023-04-25T02:55:43;76.17;;;13.30;;
4049;SDS011;2039;50.894;6.888;2023-04-25T02:58:09;75.77;;;13.90;;
4049;SDS011;2039;50.894;6.888;2023-04-25T03:00:35;72.93;;;14.40;;
4049;SDS011;2039;50.894;6.888;2023-04-25T03:03:01;73.73;;;14.97;;
4049;SDS011;2039;50.894;6.888;2023-04-25T03:05:26;77.67;;;16.17;;
4049;SDS011;2039;50.894;6.888;2023-04-25T03:07:52;77.30;;;14.53;;
4049;SDS011;2039;50.894;6.888;2023-04-25T03:10:17;87.03;;;14.20;;
4049;SDS011;2039;50.894;6.888;2023-04-25T03:12:46;70.75;;;13.90;;
4049;SDS011;2039;50.894;6.888;2023-04-25T03:15:12;74.20;;;11.73;;
4049;SDS011;2039;50.894;6.888;2023-04-25T03:17:38;72.22;;;13.55;;
4049;SDS011;2039;50.894;6.888;2023-04-25T03:20:04;77.93;;;12.83;;
4049;SDS011;2039;50.894;6.888;2023-04-25T03:22:30;71.88;;;12.27;;
4049;SDS011;2039;50.894;6.888;2023-04-25T03:24:56;70.87;;;13.57;;
4049;SDS011;2039;50.894;6.888;2023-04-25T03:27:22;75.03;;;11.27;;
4049;SDS011;2039;50.894;6.888;2023-04-25T03:29:47;78.70;;;13.97;;
4049;SDS011;2039;50.894;6.888;2023-04-25T03:32:13;77.90;;;13.70;;
4049;SDS011;2039;50.894;6.888;2023-04-25T03:34:39;71.47;;;11.40;;
4049;SDS011;2039;50.894;6.888;2023-04-25T03:37:05;74.33;;;12.03;;
4049;SDS011;2039;50.894;6.888;2023-04-25T03:39:30;73.20;;;11.67;;
4049;SDS011;2039;50.894;6.888;2023-04-25T03:41:56;71.60;;;10.67;;
4049;SDS011;2039;50.894;6.888;2023-04-25T03:44:22;76.70;;;11.57;;
4049;SDS011;2039;50.894;6.888;2023-04-25T03:46:49;76.68;;;11.52;;
4049;SDS011;2039;50.894;6.888;2023-04-25T03:49:15;69.70;;;8.93;;
4049;SDS011;2039;50.894;6.888;2023-04-25T03:51:41;72.50;;;10.43;;
4049;SDS011;2039;50.894;6.888;2023-04-25T03:54:07;74.93;;;10.07;;
4049;SDS011;2039;50.894;6.888;2023-04-25T03:56:32;77.97;;;12.60;;
4049;SDS011;2039;50.894;6.888;2023-04-25T03:58:58;76.10;;;12.10;;
4049;SDS011;2039;50.894;6.888;2023-04-25T04:01:24;72.60;;;9.20;;
4049;SDS011;2039;50.894;6.888;2023-04-25T04:03:50;72.27;;;11.27;;
4049;SDS011;2039;50.894;6.888;2023-04-25T04:06:16;78.77;;;12.63;;
4049;SDS011;2039;50.894;6.888;2023-04-25T04:08:42;75.65;;;10.43;;
4049;SDS011;2039;50.894;6.888;2023-04-25T04:11:07;79.27;;;12.47;;
4049;SDS011;2039;50.894;6.888;2023-04-25T04:13:33;73.10;;;11.47;;
4049;SDS011;2039;50.894;6.888;2023-04-25T04:15:59;73.07;;;11.05;;
4049;SDS011;2039;50.894;6.888;2023-04-25T04:18:25;77.70;;;10.83;;
4049;SDS011;2039;50.894;6.888;2023-04-25T04:20:51;79.77;;;12.20;;
4049;SDS011;2039;50.894;6.888;2023-04-25T04:23:16;75.17;;;11.80;;
4049;SDS011;2039;50.894;6.888;2023-04-25T04:25:42;80.30;;;12.00;;
4049;SDS011;2039;50.894;6.888;2023-04-25T04:28:08;77.93;;;11.50;;
4049;SDS011;2039;50.894;6.888;2023-04-25T04:30:36;72.45;;;10.98;;
4049;SDS011;2039;50.894;6.888;2023-04-25T04:33:02;77.18;;;12.30;;
4049;SDS011;2039;50.894;6.888;2023-04-25T04:35:28;78.32;;;12.45;;
4049;SDS011;2039;50.894;6.888;2023-04-25T04:37:54;71.70;;;12.80;;
4049;SDS011;2039;50.894;6.888;2023-04-25T04:40:20;76.68;;;13.23;;
4049;SDS011;2039;50.894;6.888;2023-04-25T04:42:46;78.22;;;12.23;;
4049;SDS011;2039;50.894;6.888;2023-04-25T04:45:13;77.85;;;12.50;;
4049;SDS011;2039;50.894;6.888;2023-04-25T04:47:39;85.45;;;12.82;;
4049;SDS011;2039;50.894;6.888;2023-04-25T04:50:06;77.50;;;11.38;;
4049;SDS011;2039;50.894;6.888;2023-04-25T04:52:34;72.28;;;11.70;;
4049;SDS011;2039;50.894;6.888;2023-04-25T04:55:00;73.70;;;11.32;;
4049;SDS011;2039;50.894;6.888;2023-04-25T04:57:28;76.03;;;11.68;;
4049;SDS011;2039;50.894;6.888;2023-04-25T04:59:54;79.78;;;12.45;;
4049;SDS011;2039;50.894;6.888;2023-04-25T05:02:20;73.20;;;12.03;;
4049;SDS011;2039;50.894;6.888;2023-04-25T05:04:45;80.30;;;12.93;;
4049;SDS011;2039;50.894;6.888;2023-04-25T05:07:11;73.67;;;12.10;;
4049;SDS011;2039;50.894;6.888;2023-04-25T05:09:37;87.18;;;11.77;;
4049;SDS011;2039;50.894;6.888;2023-04-25T05:12:03;76.53;;;11.20;;
4049;SDS011;2039;50.894;6.888;2023-04-25T05:14:30;75.83;;;12.20;;
4049;SDS011;2039;50.894;6.888;2023-04-25T05:16:56;91.32;;;10.65;;
4049;SDS011;2039;50.894;6.888;2023-04-25T05:19:22;83.20;;;13.50;;
4049;SDS011;2039;50.894;6.888;2023-04-25T05:21:50;81.22;;;11.90;;
4049;SDS011;2039;50.894;6.888;2023-04-25T05:24:16;75.57;;;14.10;;
4049;SDS011;2039;50.894;6.888;2023-04-25T05:26:42;77.40;;;11.83;;
4049;SDS011;2039;50.894;6.888;2023-04-25T05:29:07;78.47;;;11.30;;
4049;SDS011;2039;50.894;6.888;2023-04-25T05:31:33;77.17;;;11.27;;
4049;SDS011;2039;50.894;6.888;2023-04-25T05:33:59;72.70;;;11.47;;
4049;SDS011;2039;50.894;6.888;2023-04-25T05:36:25;88.00;;;11.97;;
4049;SDS011;2039;50.894;6.888;2023-04-25T05:38:51;72.47;;;9.93;;
4049;SDS011;2039;50.894;6.888;2023-04-25T05:41:16;73.13;;;9.20;;
4049;SDS011;2039;50.894;6.888;2023-04-25T05:43:42;80.47;;;11.10;;
4049;SDS011;2039;50.894;6.888;2023-04-25T05:46:11;77.38;;;11.80;;
4049;SDS011;2039;50.894;6.888;2023-04-25T05:48:38;84.05;;;13.88;;
4049;SDS011;2039;50.894;6.888;2023-04-25T05:51:04;74.10;;;10.75;;
4049;SDS011;2039;50.894;6.888;2023-04-25T05:53:30;81.27;;;10.23;;
4049;SDS011;2039;50.894;6.888;2023-04-25T05:55:56;74.73;;;9.67;;
4049;SDS011;2039;50.894;6.888;2023-04-25T05:58:21;77.80;;;9.40;;
4049;SDS011;2039;50.894;6.888;2023-04-25T06:00:48;84.68;;;8.68;;
4049;SDS011;2039;50.894;6.888;2023-04-25T06:03:14;83.87;;;9.80;;
4049;SDS011;2039;50.894;6.888;2023-04-25T06:05:41;77.13;;;12.25;;
4049;SDS011;2039;50.894;6.888;2023-04-25T06:08:07;78.45;;;10.40;;
4049;SDS011;2039;50.894;6.888;2023-04-25T06:10:34;77.65;;;9.88;;
4049;SDS011;2039;50.894;6.888;2023-04-25T06:12:59;74.83;;;9.03;;
4049;SDS011;2039;50.894;6.888;2023-04-25T06:15:25;77.03;;;7.13;;
4049;SDS011;2039;50.894;6.888;2023-04-25T06:17:51;72.57;;;7.30;;
4049;SDS011;2039;50.894;6.888;2023-04-25T06:20:16;73.50;;;7.40;;
4049;SDS011;2039;50.894;6.888;2023-04-25T06:22:42;74.95;;;6.82;;
4049;SDS011;2039;50.894;6.888;2023-04-25T06:25:08;72.37;;;7.50;;
4049;SDS011;2039;50.894;6.888;2023-04-25T06:27:34;71.80;;;8.30;;
4049;SDS011;2039;50.894;6.888;2023-04-25T06:30:00;74.20;;;7.80;;
4049;SDS011;2039;50.894;6.888;2023-04-25T06:32:25;82.00;;;7.57;;
4049;SDS011;2039;50.894;6.888;2023-04-25T06:34:53;73.25;;;7.95;;
4049;SDS011;2039;50.894;6.888;2023-04-25T06:37:19;80.17;;;7.83;;
4049;SDS011;2039;50.894;6.888;2023-04-25T06:39:45;75.10;;;7.30;;
4049;SDS011;2039;50.894;6.888;2023-04-25T06:42:10;76.67;;;9.33;;
4049;SDS011;2039;50.894;6.888;2023-04-25T06:44:36;75.73;;;7.40;;
4049;SDS011;2039;50.894;6.888;2023-04-25T06:47:02;78.37;;;5.97;;
4049;SDS011;2039;50.894;6.888;2023-04-25T06:49:30;71.97;;;6.10;;
4049;SDS011;2039;50.894;6.888;2023-04-25T06:51:58;75.50;;;7.73;;
4049;SDS011;2039;50.894;6.888;2023-04-25T06:54:24;76.75;;;6.60;;
4049;SDS011;2039;50.894;6.888;2023-04-25T06:56:52;83.13;;;7.25;;
4049;SDS011;2039;50.894;6.888;2023-04-25T06:59:18;71.28;;;6.07;;
4049;SDS011;2039;50.894;6.888;2023-04-25T07:01:51;78.97;;;7.63;;
4049;SDS011;2039;50.894;6.888;2023-04-25T07:04:17;72.55;;;7.55;;
4049;SDS011;2039;50.894;6.888;2023-04-25T07:06:43;76.10;;;7.73;;
4049;SDS011;2039;50.894;6.888;2023-04-25T07:09:13;77.63;;;6.63;;
4049;SDS011;2039;50.894;6.888;2023-04-25T07:11:38;81.10;;;7.90;;
4049;SDS011;2039;50.894;6.888;2023-04-25T07:14:04;80.10;;;6.90;;
4049;SDS011;2039;50.894;6.888;2023-04-25T07:16:33;85.85;;;6.82;;
4049;SDS011;2039;50.894;6.888;2023-04-25T07:18:59;69.40;;;6.35;;
4049;SDS011;2039;50.894;6.888;2023-04-25T07:21:25;75.43;;;6.27;;
4049;SDS011;2039;50.894;6.888;2023-04-25T07:23:51;77.43;;;6.40;;
4049;SDS011;2039;50.894;6.888;2023-04-25T07:26:17;77.13;;;5.57;;
4049;SDS011;2039;50.894;6.888;2023-04-25T07:28:45;72.70;;;8.00;;
4049;SDS011;2039;50.894;6.888;2023-04-25T07:31:14;69.85;;;5.60;;
4049;SDS011;2039;50.894;6.888;2023-04-25T07:33:43;74.15;;;6.00;;
4049;SDS011;2039;50.894;6.888;2023-04-25T07:36:11;72.43;;;6.20;;
4049;SDS011;2039;50.894;6.888;2023-04-25T07:38:38;71.82;;;7.35;;
4049;SDS011;2039;50.894;6.888;2023-04-25T07:41:04;68.80;;;7.50;;
4049;SDS011;2039;50.894;6.888;2023-04-25T07:43:30;76.47;;;8.30;;
4049;SDS011;2039;50.894;6.888;2023-04-25T07:45:56;71.47;;;8.20;;
4049;SDS011;2039;50.894;6.888;2023-04-25T07:48:22;72.23;;;7.50;;
4049;SDS011;2039;50.894;6.888;2023-04-25T07:50:48;69.32;;;7.82;;
4049;SDS011;2039;50.894;6.888;2023-04-25T07:53:13;75.37;;;8.20;;
4049;SDS011;2039;50.894;6.888;2023-04-25T07:55:39;79.30;;;9.10;;
4049;SDS011;2039;50.894;6.888;2023-04-25T07:58:08;71.67;;;7.60;;
4049;SDS011;2039;50.894;6.888;2023-04-25T08:00:37;75.35;;;8.65;;
4049;SDS011;2039;50.894;6.888;2023-04-25T08:03:02;79.22;;;8.05;;
4049;SDS011;2039;50.894;6.888;2023-04-25T08:05:28;69.27;;;6.30;;
4049;SDS011;2039;50.894;6.888;2023-04-25T08:07:54;76.13;;;6.10;;
4049;SDS011;2039;50.894;6.888;2023-04-25T08:10:21;71.75;;;5.70;;
4049;SDS011;2039;50.894;6.888;2023-04-25T08:12:48;70.25;;;5.03;;
4049;SDS011;2039;50.894;6.888;2023-04-25T08:15:14;68.70;;;5.00;;
4049;SDS011;2039;50.894;6.888;2023-04-25T08:17:40;75.30;;;5.63;;
4049;SDS011;2039;50.894;6.888;2023-04-25T08:20:06;70.75;;;5.18;;
4049;SDS011;2039;50.894;6.888;2023-04-25T08:22:32;68.60;;;5.40;;
4049;SDS011;2039;50.894;6.888;2023-04-25T08:24:59;72.57;;;6.13;;
4049;SDS011;2039;50.894;6.888;2023-04-25T08:27:25;69.38;;;4.60;;
4049;SDS011;2039;50.894;6.888;2023-04-25T08:29:50;77.90;;;4.90;;
4049;SDS011;2039;50.894;6.888;2023-04-25T08:32:16;67.47;;;5.30;;
4049;SDS011;2039;50.894;6.888;2023-04-25T08:34:43;86.15;;;5.32;;
4049;SDS011;2039;50.894;6.888;2023-04-25T08:37:12;76.20;;;5.13;;
4049;SDS011;2039;50.894;6.888;2023-04-25T08:39:37;67.68;;;4.68;;
4049;SDS011;2039;50.894;6.888;2023-04-25T08:42:06;72.15;;;5.43;;
4049;SDS011;2039;50.894;6.888;2023-04-25T08:44:35;73.57;;;4.90;;
4049;SDS011;2039;50.894;6.888;2023-04-25T08:47:08;68.20;;;4.90;;
4049;SDS011;2039;50.894;6.888;2023-04-25T08:49:33;72.15;;;5.32;;
4049;SDS011;2039;50.894;6.888;2023-04-25T08:52:00;72.13;;;5.53;;
4049;SDS011;2039;50.894;6.888;2023-04-25T08:54:28;68.88;;;4.63;;
4049;SDS011;2039;50.894;6.888;2023-04-25T08:56:57;70.88;;;5.57;;
4049;SDS011;2039;50.894;6.888;2023-04-25T08:59:25;75.15;;;5.65;;
4049;SDS011;2039;50.894;6.888;2023-04-25T09:01:51;70.45;;;5.72;;
4049;SDS011;2039;50.894;6.888;2023-04-25T09:04:20;71.00;;;5.23;;
4049;SDS011;2039;50.894;6.888;2023-04-25T09:06:46;73.10;;;5.43;;
4049;SDS011;2039;50.894;6.888;2023-04-25T09:09:13;72.57;;;4.88;;
4049;SDS011;2039;50.894;6.888;2023-04-25T09:11:39;70.47;;;4.30;;
4049;SDS011;2039;50.894;6.888;2023-04-25T09:19:30;77.65;;;4.80;;
4049;SDS011;2039;50.894;6.888;2023-04-25T09:21:57;67.15;;;4.05;;
4049;SDS011;2039;50.894;6.888;2023-04-25T09:24:38;68.93;;;4.50;;
4049;SDS011;2039;50.894;6.888;2023-04-25T09:27:12;70.55;;;4.85;;
4049;SDS011;2039;50.894;6.888;2023-04-25T09:29:47;72.60;;;4.95;;
4049;SDS011;2039;50.894;6.888;2023-04-25T09:32:21;70.90;;;5.05;;
4049;SDS011;2039;50.894;6.888;2023-04-25T09:34:49;68.10;;;4.63;;
4049;SDS011;2039;50.894;6.888;2023-04-25T09:37:27;70.18;;;5.60;;
4049;SDS011;2039;50.894;6.888;2023-04-25T09:39:57;71.40;;;4.80;;
4049;SDS011;2039;50.894;6.888;2023-04-25T09:42:25;69.40;;;5.00;;
4049;SDS011;2039;50.894;6.888;2023-04-25T09:44:55;71.43;;;5.32;;
4049;SDS011;2039;50.894;6.888;2023-04-25T09:47:25;68.95;;;4.80;;
4049;SDS011;2039;50.894;6.888;2023-04-25T09:49:52;72.40;;;5.13;;
4049;SDS011;2039;50.894;6.888;2023-04-25T09:52:19;72.03;;;4.45;;
4049;SDS011;2039;50.894;6.888;2023-04-25T09:54:47;71.18;;;5.60;;
4049;SDS011;2039;50.894;6.888;2023-04-25T09:57:20;71.82;;;4.72;;
4049;SDS011;2039;50.894;6.888;2023-04-25T09:59:54;69.35;;;4.50;;
4049;SDS011;2039;50.894;6.888;2023-04-25T10:02:21;72.90;;;4.90;;
4049;SDS011;2039;50.894;6.888;2023-04-25T10:04:49;68.57;;;5.35;;
4049;SDS011;2039;50.894;6.888;2023-04-25T10:07:18;68.43;;;6.05;;
4049;SDS011;2039;50.894;6.888;2023-04-25T10:09:47;70.43;;;5.43;;
4049;SDS011;2039;50.894;6.888;2023-04-25T10:12:15;72.50;;;6.07;;
4049;SDS011;2039;50.894;6.888;2023-04-25T10:14:42;71.80;;;5.72;;
4049;SDS011;2039;50.894;6.888;2023-04-25T10:17:08;65.45;;;4.57;;
4049;SDS011;2039;50.894;6.888;2023-04-25T10:19:36;70.30;;;5.15;;
4049;SDS011;2039;50.894;6.888;2023-04-25T10:22:11;72.63;;;5.25;;
4049;SDS011;2039;50.894;6.888;2023-04-25T10:24:57;75.40;;;5.20;;
4049;SDS011;2039;50.894;6.888;2023-04-25T10:27:29;75.35;;;5.32;;
4049;SDS011;2039;50.894;6.888;2023-04-25T10:30:05;71.63;;;5.80;;
4049;SDS011;2039;50.894;6.888;2023-04-25T10:32:37;68.05;;;4.13;;
4049;SDS011;2039;50.894;6.888;2023-04-25T10:38:11;72.55;;;6.28;;
4049;SDS011;2039;50.894;6.888;2023-04-25T10:40:39;74.95;;;5.43;;
4049;SDS011;2039;50.894;6.888;2023-04-25T10:45:52;70.22;;;4.75;;
4049;SDS011;2039;50.894;6.888;2023-04-25T10:48:28;71.60;;;4.57;;
4049;SDS011;2039;50.894;6.888;2023-04-25T10:51:07;75.60;;;5.78;;
4049;SDS011;2039;50.894;6.888;2023-04-25T10:53:47;68.30;;;5.00;;
4049;SDS011;2039;50.894;6.888;2023-04-25T10:56:22;71.53;;;5.60;;
4049;SDS011;2039;50.894;6.888;2023-04-25T10:58:50;69.70;;;6.15;;
4049;SDS011;2039;50.894;6.888;2023-04-25T11:01:20;69.27;;;5.47;;
4049;SDS011;2039;50.894;6.888;2023-04-25T11:03:56;74.40;;;5.70;;
4049;SDS011;2039;50.894;6.888;2023-04-25T11:06:25;69.32;;;5.45;;
4049;SDS011;2039;50.894;6.888;2023-04-25T11:08:53;68.43;;;4.90;;
4049;SDS011;2039;50.894;6.888;2023-04-25T11:11:19;70.13;;;4.97;;
4049;SDS011;2039;50.894;6.888;2023-04-25T11:13:48;66.63;;;4.80;;
4049;SDS011;2039;50.894;6.888;2023-04-25T11:16:15;65.57;;;4.80;;
4049;SDS011;2039;50.894;6.888;2023-04-25T11:18:42;66.00;;;4.22;;
4049;SDS011;2039;50.894;6.888;2023-04-25T11:21:08;68.63;;;3.80;;
4049;SDS011;2039;50.894;6.888;2023-04-25T11:23:35;68.38;;;5.05;;
4049;SDS011;2039;50.894;6.888;2023-04-25T11:26:01;66.90;;;5.03;;
4049;SDS011;2039;50.894;6.888;2023-04-25T11:28:28;68.22;;;4.60;;
4049;SDS011;2039;50.894;6.888;2023-04-25T11:30:54;68.00;;;4.60;;
4049;SDS011;2039;50.894;6.888;2023-04-25T11:33:23;68.22;;;4.65;;
4049;SDS011;2039;50.894;6.888;2023-04-25T11:35:50;68.15;;;5.55;;
4049;SDS011;2039;50.894;6.888;2023-04-25T11:38:22;69.93;;;5.18;;
4049;SDS011;2039;50.894;6.888;2023-04-25T11:40:54;66.97;;;4.95;;
4049;SDS011;2039;50.894;6.888;2023-04-25T11:43:20;68.55;;;4.88;;
4049;SDS011;2039;50.894;6.888;2023-04-25T11:45:50;66.72;;;4.03;;
4049;SDS011;2039;50.894;6.888;2023-04-25T11:48:16;67.97;;;4.95;;
4049;SDS011;2039;50.894;6.888;2023-04-25T11:50:42;73.07;;;5.28;;
4049;SDS011;2039;50.894;6.888;2023-04-25T11:53:08;68.87;;;5.13;;
4049;SDS011;2039;50.894;6.888;2023-04-25T11:55:35;69.47;;;5.25;;
4049;SDS011;2039;50.894;6.888;2023-04-25T11:58:01;69.55;;;5.30;;
4049;SDS011;2039;50.894;6.888;2023-04-25T12:00:28;67.45;;;3.75;;
4049;SDS011;2039;50.894;6.888;2023-04-25T12:02:55;67.80;;;4.60;;
4049;SDS011;2039;50.894;6.888;2023-04-25T12:05:28;70.85;;;3.78;;
4049;SDS011;2039;50.894;6.888;2023-04-25T12:07:55;65.90;;;3.50;;
4049;SDS011;2039;50.894;6.888;2023-04-25T12:10:21;71.38;;;4.38;;
4049;SDS011;2039;50.894;6.888;2023-04-25T12:12:49;67.05;;;3.85;;
4049;SDS011;2039;50.894;6.888;2023-04-25T12:15:19;70.97;;;3.90;;
4049;SDS011;2039;50.894;6.888;2023-04-25T12:17:51;68.15;;;4.03;;
4049;SDS011;2039;50.894;6.888;2023-04-25T12:20:20;71.60;;;4.65;;
4049;SDS011;2039;50.894;6.888;2023-04-25T12:22:49;66.13;;;4.22;;
4049;SDS011;2039;50.894;6.888;2023-04-25T12:25:48;69.15;;;4.28;;
4049;SDS011;2039;50.894;6.888;2023-04-25T12:28:16;65.65;;;3.90;;
4049;SDS011;2039;50.894;6.888;2023-04-25T12:33:32;71.07;;;4.10;;
4049;SDS011;2039;50.894;6.888;2023-04-25T12:35:59;68.95;;;3.97;;
4049;SDS011;2039;50.894;6.888;2023-04-25T12:38:29;70.47;;;4.00;;
4049;SDS011;2039;50.894;6.888;2023-04-25T12:40:57;66.35;;;4.10;;
4049;SDS011;2039;50.894;6.888;2023-04-25T12:43:23;70.88;;;4.05;;
4049;SDS011;2039;50.894;6.888;2023-04-25T12:45:49;65.65;;;3.80;;
4049;SDS011;2039;50.894;6.888;2023-04-25T12:48:16;70.53;;;4.07;;
4049;SDS011;2039;50.894;6.888;2023-04-25T12:50:42;70.40;;;4.60;;
4049;SDS011;2039;50.894;6.888;2023-04-25T12:53:08;65.50;;;3.92;;
4049;SDS011;2039;50.894;6.888;2023-04-25T12:55:35;70.90;;;3.85;;
4049;SDS011;2039;50.894;6.888;2023-04-25T12:58:00;67.30;;;3.67;;
4049;SDS011;2039;50.894;6.888;2023-04-25T13:00:28;66.78;;;3.63;;
4049;SDS011;2039;50.894;6.888;2023-04-25T13:02:54;68.10;;;4.15;;
4049;SDS011;2039;50.894;6.888;2023-04-25T13:05:20;69.37;;;4.20;;
4049;SDS011;2039;50.894;6.888;2023-04-25T13:07:46;73.45;;;4.35;;
4049;SDS011;2039;50.894;6.888;2023-04-25T13:10:12;67.07;;;4.00;;
4049;SDS011;2039;50.894;6.888;2023-04-25T13:12:37;69.97;;;4.30;;
4049;SDS011;2039;50.894;6.888;2023-04-25T13:15:03;66.47;;;4.87;;
4049;SDS011;2039;50.894;6.888;2023-04-25T13:17:29;69.00;;;5.10;;
4049;SDS011;2039;50.894;6.888;2023-04-25T13:19:55;65.10;;;3.87;;
4049;SDS011;2039;50.894;6.888;2023-04-25T13:22:21;66.47;;;4.53;;
4049;SDS011;2039;50.894;6.888;2023-04-25T13:24:46;73.50;;;3.97;;
4049;SDS011;2039;50.894;6.888;2023-04-25T13:27:12;68.80;;;3.73;;
4049;SDS011;2039;50.894;6.888;2023-04-25T13:29:38;66.47;;;3.73;;
4049;SDS011;2039;50.894;6.888;2023-04-25T13:32:05;67.55;;;3.83;;
4049;SDS011;2039;50.894;6.888;2023-04-25T13:34:31;66.18;;;3.70;;
4049;SDS011;2039;50.894;6.888;2023-04-25T13:36:57;70.00;;;3.77;;
4049;SDS011;2039;50.894;6.888;2023-04-25T13:39:23;67.17;;;4.60;;
4049;SDS011;2039;50.894;6.888;2023-04-25T13:41:49;68.35;;;4.97;;
4049;SDS011;2039;50.894;6.888;2023-04-25T13:44:15;65.33;;;3.57;;
4049;SDS011;2039;50.894;6.888;2023-04-25T13:46:41;73.13;;;4.60;;
4049;SDS011;2039;50.894;6.888;2023-04-25T13:49:07;66.30;;;4.40;;
4049;SDS011;2039;50.894;6.888;2023-04-25T13:51:32;67.57;;;3.90;;
4049;SDS011;2039;50.894;6.888;2023-04-25T13:53:58;66.20;;;3.63;;
4049;SDS011;2039;50.894;6.888;2023-04-25T13:56:27;65.40;;;3.47;;
4049;SDS011;2039;50.894;6.888;2023-04-25T13:58:52;65.63;;;3.67;;
4049;SDS011;2039;50.894;6.888;2023-04-25T14:01:18;66.13;;;4.00;;
4049;SDS011;2039;50.894;6.888;2023-04-25T14:03:45;66.30;;;4.20;;
4049;SDS011;2039;50.894;6.888;2023-04-25T14:06:11;67.90;;;3.95;;
4049;SDS011;2039;50.894;6.888;2023-04-25T14:08:37;64.80;;;3.60;;
4049;SDS011;2039;50.894;6.888;2023-04-25T14:11:03;66.05;;;3.78;;
4049;SDS011;2039;50.894;6.888;2023-04-25T14:13:29;66.65;;;4.82;;
4049;SDS011;2039;50.894;6.888;2023-04-25T14:15:55;66.90;;;3.50;;
4049;SDS011;2039;50.894;6.888;2023-04-25T14:18:21;65.97;;;4.10;;
4049;SDS011;2039;50.894;6.888;2023-04-25T14:20:46;68.93;;;4.00;;
4049;SDS011;2039;50.894;6.888;2023-04-25T14:23:12;66.17;;;3.33;;
4049;SDS011;2039;50.894;6.888;2023-04-25T14:25:38;67.85;;;3.60;;
4049;SDS011;2039;50.894;6.888;2023-04-25T14:28:07;66.45;;;4.18;;
4049;SDS011;2039;50.894;6.888;2023-04-25T14:30:33;65.70;;;3.63;;
4049;SDS011;2039;50.894;6.888;2023-04-25T14:32:58;66.20;;;3.43;;
4049;SDS011;2039;50.894;6.888;2023-04-25T14:35:24;66.47;;;4.03;;
4049;SDS011;2039;50.894;6.888;2023-04-25T14:37:50;66.80;;;3.50;;
4049;SDS011;2039;50.894;6.888;2023-04-25T14:40:16;67.77;;;3.60;;
4049;SDS011;2039;50.894;6.888;2023-04-25T14:42:42;64.15;;;3.05;;
4049;SDS011;2039;50.894;6.888;2023-04-25T14:45:08;66.50;;;3.57;;
4049;SDS011;2039;50.894;6.888;2023-04-25T14:47:34;64.68;;;3.33;;
4049;SDS011;2039;50.894;6.888;2023-04-25T14:50:01;65.05;;;3.45;;
4049;SDS011;2039;50.894;6.888;2023-04-25T14:52:27;69.30;;;3.88;;
4049;SDS011;2039;50.894;6.888;2023-04-25T14:54:52;67.03;;;3.53;;
4049;SDS011;2039;50.894;6.888;2023-04-25T14:57:18;64.30;;;3.10;;
4049;SDS011;2039;50.894;6.888;2023-04-25T14:59:44;64.30;;;3.23;;
4049;SDS011;2039;50.894;6.888;2023-04-25T15:02:10;66.25;;;3.60;;
4049;SDS011;2039;50.894;6.888;2023-04-25T15:04:36;66.80;;;3.83;;
4049;SDS011;2039;50.894;6.888;2023-04-25T15:07:05;66.95;;;3.90;;
4049;SDS011;2039;50.894;6.888;2023-04-25T15:09:30;65.63;;;3.40;;
4049;SDS011;2039;50.894;6.888;2023-04-25T15:11:59;71.18;;;3.67;;